sensor_id;sensor_type;location;lat;lon;timestamp;P1;durP1;ratioP1;P2;durP2;ratioP2
75548;SDS011;64133;56.002;37.208;2023-02-13T00:00:47;1.87;;;0.78;;
75548;SDS011;64133;56.002;37.208;2023-02-13T00:05:51;2.67;;;0.80;;
75548;SDS011;64133;56.002;37.208;2023-02-13T00:10:56;2.33;;;1.12;;
75548;SDS011;64133;56.002;37.208;2023-02-13T00:16:01;2.17;;;0.93;;
75548;SDS011;64133;56.002;37.208;2023-02-13T00:21:06;3.95;;;0.95;;
75548;SDS011;64133;56.002;37.208;2023-02-13T00:26:13;1.42;;;0.72;;
75548;SDS011;64133;56.002;37.208;2023-02-13T00:31:18;2.45;;;1.20;;
75548;SDS011;64133;56.002;37.208;2023-02-13T00:36:22;2.30;;;0.60;;
75548;SDS011;64133;56.002;37.208;2023-02-13T00:41:27;2.12;;;0.80;;
75548;SDS011;64133;56.002;37.208;2023-02-13T00:46:31;3.00;;;0.90;;
75548;SDS011;64133;56.002;37.208;2023-02-13T00:51:36;3.90;;;0.80;;
75548;SDS011;64133;56.002;37.208;2023-02-13T00:56:41;2.90;;;1.32;;
75548;SDS011;64133;56.002;37.208;2023-02-13T01:01:45;5.10;;;1.02;;
75548;SDS011;64133;56.002;37.208;2023-02-13T01:06:50;4.15;;;1.17;;
75548;SDS011;64133;56.002;37.208;2023-02-13T01:11:55;3.33;;;0.80;;
75548;SDS011;64133;56.002;37.208;2023-02-13T01:16:59;1.32;;;0.88;;
75548;SDS011;64133;56.002;37.208;2023-02-13T01:22:04;4.05;;;0.90;;
75548;SDS011;64133;56.002;37.208;2023-02-13T01:27:09;1.90;;;0.75;;
75548;SDS011;64133;56.002;37.208;2023-02-13T01:32:13;2.30;;;0.90;;
75548;SDS011;64133;56.002;37.208;2023-02-13T01:37:18;1.92;;;1.00;;
75548;SDS011;64133;56.002;37.208;2023-02-13T01:42:23;3.87;;;0.55;;
75548;SDS011;64133;56.002;37.208;2023-02-13T01:47:43;1.87;;;0.72;;
75548;SDS011;64133;56.002;37.208;2023-02-13T01:52:32;2.25;;;0.82;;
75548;SDS011;64133;56.002;37.208;2023-02-13T01:57:37;6.05;;;1.12;;
75548;SDS011;64133;56.002;37.208;2023-02-13T02:02:42;3.47;;;1.10;;
75548;SDS011;64133;56.002;37.208;2023-02-13T02:07:46;1.60;;;0.90;;
75548;SDS011;64133;56.002;37.208;2023-02-13T02:12:52;1.20;;;0.65;;
75548;SDS011;64133;56.002;37.208;2023-02-13T02:17:56;4.08;;;1.05;;
75548;SDS011;64133;56.002;37.208;2023-02-13T02:28:38;2.87;;;0.75;;
75548;SDS011;64133;56.002;37.208;2023-02-13T02:34:00;1.40;;;0.60;;
75548;SDS011;64133;56.002;37.208;2023-02-13T02:39:09;1.85;;;0.90;;
75548;SDS011;64133;56.002;37.208;2023-02-13T02:44:19;1.87;;;0.62;;
75548;SDS011;64133;56.002;37.208;2023-02-13T02:49:25;1.30;;;0.70;;
75548;SDS011;64133;56.002;37.208;2023-02-13T02:54:47;3.27;;;0.62;;
75548;SDS011;64133;56.002;37.208;2023-02-13T03:00:11;2.85;;;0.68;;
75548;SDS011;64133;56.002;37.208;2023-02-13T03:05:33;2.72;;;1.15;;
75548;SDS011;64133;56.002;37.208;2023-02-13T03:10:55;4.97;;;1.10;;
75548;SDS011;64133;56.002;37.208;2023-02-13T03:16:19;2.70;;;0.80;;
75548;SDS011;64133;56.002;37.208;2023-02-13T03:21:43;2.65;;;1.00;;
75548;SDS011;64133;56.002;37.208;2023-02-13T03:27:07;1.77;;;0.42;;
75548;SDS011;64133;56.002;37.208;2023-02-13T03:32:14;2.90;;;0.70;;
75548;SDS011;64133;56.002;37.208;2023-02-13T03:37:18;2.30;;;0.57;;
75548;SDS011;64133;56.002;37.208;2023-02-13T03:42:41;4.62;;;0.53;;
75548;SDS011;64133;56.002;37.208;2023-02-13T03:47:46;5.03;;;1.00;;
75548;SDS011;64133;56.002;37.208;2023-02-13T03:52:51;3.02;;;0.57;;
75548;SDS011;64133;56.002;37.208;2023-02-13T03:57:55;2.55;;;0.55;;
75548;SDS011;64133;56.002;37.208;2023-02-13T04:03:19;2.17;;;0.72;;
75548;SDS011;64133;56.002;37.208;2023-02-13T04:08:23;2.90;;;1.00;;
75548;SDS011;64133;56.002;37.208;2023-02-13T04:13:29;0.50;;;0.23;;
75548;SDS011;64133;56.002;37.208;2023-02-13T04:23:36;2.35;;;0.90;;
75548;SDS011;64133;56.002;37.208;2023-02-13T04:28:40;1.20;;;0.62;;
75548;SDS011;64133;56.002;37.208;2023-02-13T04:33:45;2.15;;;0.75;;
75548;SDS011;64133;56.002;37.208;2023-02-13T04:38:50;5.25;;;0.60;;
75548;SDS011;64133;56.002;37.208;2023-02-13T04:43:54;2.35;;;0.75;;
75548;SDS011;64133;56.002;37.208;2023-02-13T04:48:59;1.87;;;0.70;;
75548;SDS011;64133;56.002;37.208;2023-02-13T04:54:04;2.00;;;0.37;;
75548;SDS011;64133;56.002;37.208;2023-02-13T05:04:12;4.70;;;1.47;;
75548;SDS011;64133;56.002;37.208;2023-02-13T05:09:17;1.12;;;0.60;;
75548;SDS011;64133;56.002;37.208;2023-02-13T05:14:22;4.60;;;1.25;;
75548;SDS011;64133;56.002;37.208;2023-02-13T05:19:26;3.22;;;1.07;;
75548;SDS011;64133;56.002;37.208;2023-02-13T05:29:34;1.52;;;0.72;;
75548;SDS011;64133;56.002;37.208;2023-02-13T05:34:39;1.57;;;0.68;;
75548;SDS011;64133;56.002;37.208;2023-02-13T05:39:43;3.58;;;1.30;;
75548;SDS011;64133;56.002;37.208;2023-02-13T05:44:48;2.42;;;0.57;;
75548;SDS011;64133;56.002;37.208;2023-02-13T05:49:53;4.62;;;1.05;;
75548;SDS011;64133;56.002;37.208;2023-02-13T05:54:58;3.50;;;1.27;;
75548;SDS011;64133;56.002;37.208;2023-02-13T06:00:03;2.15;;;0.95;;
75548;SDS011;64133;56.002;37.208;2023-02-13T06:05:10;2.12;;;1.00;;
75548;SDS011;64133;56.002;37.208;2023-02-13T06:10:14;2.30;;;1.17;;
75548;SDS011;64133;56.002;37.208;2023-02-13T06:15:19;6.55;;;1.10;;
75548;SDS011;64133;56.002;37.208;2023-02-13T06:20:24;2.47;;;1.35;;
75548;SDS011;64133;56.002;37.208;2023-02-13T06:25:29;5.15;;;1.15;;
75548;SDS011;64133;56.002;37.208;2023-02-13T06:30:33;3.05;;;1.17;;
75548;SDS011;64133;56.002;37.208;2023-02-13T06:35:38;3.02;;;1.00;;
75548;SDS011;64133;56.002;37.208;2023-02-13T06:40:42;2.77;;;1.12;;
75548;SDS011;64133;56.002;37.208;2023-02-13T06:45:47;6.47;;;1.60;;
75548;SDS011;64133;56.002;37.208;2023-02-13T06:50:52;3.20;;;1.42;;
75548;SDS011;64133;56.002;37.208;2023-02-13T06:55:56;5.83;;;1.90;;
75548;SDS011;64133;56.002;37.208;2023-02-13T07:06:04;4.50;;;1.37;;
75548;SDS011;64133;56.002;37.208;2023-02-13T07:11:15;2.27;;;1.12;;
75548;SDS011;64133;56.002;37.208;2023-02-13T07:16:21;3.85;;;1.40;;
75548;SDS011;64133;56.002;37.208;2023-02-13T07:21:25;6.20;;;1.25;;
75548;SDS011;64133;56.002;37.208;2023-02-13T07:26:30;3.02;;;1.42;;
75548;SDS011;64133;56.002;37.208;2023-02-13T07:31:34;2.52;;;0.78;;
75548;SDS011;64133;56.002;37.208;2023-02-13T07:36:39;5.17;;;1.12;;
75548;SDS011;64133;56.002;37.208;2023-02-13T07:41:45;6.42;;;1.67;;
75548;SDS011;64133;56.002;37.208;2023-02-13T07:46:52;5.08;;;1.60;;
75548;SDS011;64133;56.002;37.208;2023-02-13T07:51:56;12.13;;;2.10;;
75548;SDS011;64133;56.002;37.208;2023-02-13T07:57:02;9.90;;;1.65;;
75548;SDS011;64133;56.002;37.208;2023-02-13T08:07:15;6.15;;;1.85;;
75548;SDS011;64133;56.002;37.208;2023-02-13T08:12:19;4.95;;;1.12;;
75548;SDS011;64133;56.002;37.208;2023-02-13T08:17:24;3.55;;;1.30;;
75548;SDS011;64133;56.002;37.208;2023-02-13T08:22:29;3.10;;;1.00;;
75548;SDS011;64133;56.002;37.208;2023-02-13T08:27:34;5.45;;;1.27;;
75548;SDS011;64133;56.002;37.208;2023-02-13T08:32:38;3.02;;;1.20;;
75548;SDS011;64133;56.002;37.208;2023-02-13T08:37:43;4.03;;;1.95;;
75548;SDS011;64133;56.002;37.208;2023-02-13T08:42:47;4.17;;;1.55;;
75548;SDS011;64133;56.002;37.208;2023-02-13T08:47:55;2.30;;;1.15;;
75548;SDS011;64133;56.002;37.208;2023-02-13T08:53:00;4.40;;;1.52;;
75548;SDS011;64133;56.002;37.208;2023-02-13T08:58:04;5.37;;;1.82;;
75548;SDS011;64133;56.002;37.208;2023-02-13T09:03:09;6.08;;;1.50;;
75548;SDS011;64133;56.002;37.208;2023-02-13T09:08:14;4.22;;;1.62;;
75548;SDS011;64133;56.002;37.208;2023-02-13T09:13:19;3.27;;;1.30;;
75548;SDS011;64133;56.002;37.208;2023-02-13T09:18:24;5.53;;;2.17;;
75548;SDS011;64133;56.002;37.208;2023-02-13T09:23:30;2.62;;;1.50;;
75548;SDS011;64133;56.002;37.208;2023-02-13T09:28:35;5.47;;;1.90;;
75548;SDS011;64133;56.002;37.208;2023-02-13T09:33:39;6.15;;;2.17;;
75548;SDS011;64133;56.002;37.208;2023-02-13T09:38:44;3.80;;;1.82;;
75548;SDS011;64133;56.002;37.208;2023-02-13T09:43:49;6.22;;;1.92;;
75548;SDS011;64133;56.002;37.208;2023-02-13T09:48:56;4.17;;;1.80;;
75548;SDS011;64133;56.002;37.208;2023-02-13T09:54:01;2.95;;;1.25;;
75548;SDS011;64133;56.002;37.208;2023-02-13T09:59:28;2.75;;;1.30;;
75548;SDS011;64133;56.002;37.208;2023-02-13T10:04:38;2.85;;;1.15;;
75548;SDS011;64133;56.002;37.208;2023-02-13T10:09:43;3.08;;;1.70;;
75548;SDS011;64133;56.002;37.208;2023-02-13T10:14:51;4.85;;;1.70;;
75548;SDS011;64133;56.002;37.208;2023-02-13T10:19:57;3.17;;;1.27;;
75548;SDS011;64133;56.002;37.208;2023-02-13T10:25:03;3.15;;;1.42;;
75548;SDS011;64133;56.002;37.208;2023-02-13T10:30:13;4.28;;;2.50;;
75548;SDS011;64133;56.002;37.208;2023-02-13T10:35:22;2.40;;;1.15;;
75548;SDS011;64133;56.002;37.208;2023-02-13T10:40:30;3.67;;;1.60;;
75548;SDS011;64133;56.002;37.208;2023-02-13T10:45:42;4.62;;;1.55;;
75548;SDS011;64133;56.002;37.208;2023-02-13T10:50:52;6.10;;;2.15;;
75548;SDS011;64133;56.002;37.208;2023-02-13T10:56:02;4.33;;;1.52;;
75548;SDS011;64133;56.002;37.208;2023-02-13T11:01:11;3.58;;;1.72;;
75548;SDS011;64133;56.002;37.208;2023-02-13T11:06:14;6.05;;;2.02;;
75548;SDS011;64133;56.002;37.208;2023-02-13T11:11:28;5.72;;;1.72;;
75548;SDS011;64133;56.002;37.208;2023-02-13T11:16:38;4.58;;;2.17;;
75548;SDS011;64133;56.002;37.208;2023-02-13T11:21:43;4.80;;;1.45;;
75548;SDS011;64133;56.002;37.208;2023-02-13T11:26:52;4.22;;;1.00;;
75548;SDS011;64133;56.002;37.208;2023-02-13T11:32:02;3.17;;;0.88;;
75548;SDS011;64133;56.002;37.208;2023-02-13T11:37:18;5.42;;;1.32;;
75548;SDS011;64133;56.002;37.208;2023-02-13T11:42:26;2.65;;;1.05;;
75548;SDS011;64133;56.002;37.208;2023-02-13T11:47:32;2.92;;;1.52;;
75548;SDS011;64133;56.002;37.208;2023-02-13T11:52:37;4.10;;;1.47;;
75548;SDS011;64133;56.002;37.208;2023-02-13T11:57:43;3.22;;;0.93;;
75548;SDS011;64133;56.002;37.208;2023-02-13T12:02:48;4.72;;;1.60;;
75548;SDS011;64133;56.002;37.208;2023-02-13T12:07:52;2.67;;;0.60;;
75548;SDS011;64133;56.002;37.208;2023-02-13T12:12:57;2.20;;;0.60;;
75548;SDS011;64133;56.002;37.208;2023-02-13T12:18:03;2.08;;;1.02;;
75548;SDS011;64133;56.002;37.208;2023-02-13T12:23:11;3.22;;;1.00;;
75548;SDS011;64133;56.002;37.208;2023-02-13T12:28:15;3.60;;;0.70;;
75548;SDS011;64133;56.002;37.208;2023-02-13T12:33:24;2.12;;;1.05;;
75548;SDS011;64133;56.002;37.208;2023-02-13T12:38:33;3.60;;;1.00;;
75548;SDS011;64133;56.002;37.208;2023-02-13T12:44:02;3.27;;;0.85;;
75548;SDS011;64133;56.002;37.208;2023-02-13T12:49:19;2.77;;;1.22;;
75548;SDS011;64133;56.002;37.208;2023-02-13T12:54:32;1.82;;;0.65;;
75548;SDS011;64133;56.002;37.208;2023-02-13T12:59:44;2.08;;;0.82;;
75548;SDS011;64133;56.002;37.208;2023-02-13T13:04:54;3.98;;;1.00;;
75548;SDS011;64133;56.002;37.208;2023-02-13T13:10:02;4.20;;;1.40;;
75548;SDS011;64133;56.002;37.208;2023-02-13T13:15:09;2.37;;;1.02;;
75548;SDS011;64133;56.002;37.208;2023-02-13T13:20:34;3.70;;;1.47;;
75548;SDS011;64133;56.002;37.208;2023-02-13T13:25:58;3.25;;;1.47;;
75548;SDS011;64133;56.002;37.208;2023-02-13T13:31:04;4.20;;;1.40;;
75548;SDS011;64133;56.002;37.208;2023-02-13T13:36:10;4.42;;;1.10;;
75548;SDS011;64133;56.002;37.208;2023-02-13T13:41:16;4.33;;;1.57;;
75548;SDS011;64133;56.002;37.208;2023-02-13T13:46:20;2.70;;;1.20;;
75548;SDS011;64133;56.002;37.208;2023-02-13T13:51:25;4.47;;;2.17;;
75548;SDS011;64133;56.002;37.208;2023-02-13T13:56:39;3.00;;;1.12;;
75548;SDS011;64133;56.002;37.208;2023-02-13T14:07:36;3.20;;;1.60;;
75548;SDS011;64133;56.002;37.208;2023-02-13T14:12:45;3.95;;;1.52;;
75548;SDS011;64133;56.002;37.208;2023-02-13T14:17:53;3.65;;;1.55;;
75548;SDS011;64133;56.002;37.208;2023-02-13T14:23:05;3.50;;;1.30;;
75548;SDS011;64133;56.002;37.208;2023-02-13T14:28:17;2.95;;;1.35;;
75548;SDS011;64133;56.002;37.208;2023-02-13T14:33:24;5.08;;;1.98;;
75548;SDS011;64133;56.002;37.208;2023-02-13T14:38:28;3.20;;;1.70;;
75548;SDS011;64133;56.002;37.208;2023-02-13T14:43:35;3.58;;;1.42;;
75548;SDS011;64133;56.002;37.208;2023-02-13T14:48:44;4.92;;;1.77;;
75548;SDS011;64133;56.002;37.208;2023-02-13T14:53:48;5.22;;;1.82;;
75548;SDS011;64133;56.002;37.208;2023-02-13T14:58:53;4.28;;;1.82;;
75548;SDS011;64133;56.002;37.208;2023-02-13T15:03:58;4.47;;;2.33;;
75548;SDS011;64133;56.002;37.208;2023-02-13T15:09:03;4.12;;;1.37;;
75548;SDS011;64133;56.002;37.208;2023-02-13T15:19:42;2.20;;;1.12;;
75548;SDS011;64133;56.002;37.208;2023-02-13T15:24:43;5.58;;;1.87;;
75548;SDS011;64133;56.002;37.208;2023-02-13T15:29:54;3.15;;;1.98;;
75548;SDS011;64133;56.002;37.208;2023-02-13T15:35:00;3.15;;;1.50;;
75548;SDS011;64133;56.002;37.208;2023-02-13T15:40:14;2.92;;;1.52;;
75548;SDS011;64133;56.002;37.208;2023-02-13T15:45:22;2.77;;;1.22;;
75548;SDS011;64133;56.002;37.208;2023-02-13T15:50:29;3.40;;;1.55;;
75548;SDS011;64133;56.002;37.208;2023-02-13T15:55:35;4.47;;;2.20;;
75548;SDS011;64133;56.002;37.208;2023-02-13T16:00:40;2.90;;;1.70;;
75548;SDS011;64133;56.002;37.208;2023-02-13T16:05:45;4.05;;;1.72;;
75548;SDS011;64133;56.002;37.208;2023-02-13T16:10:49;3.12;;;1.80;;
75548;SDS011;64133;56.002;37.208;2023-02-13T16:15:54;4.28;;;1.35;;
75548;SDS011;64133;56.002;37.208;2023-02-13T16:21:06;3.42;;;1.70;;
75548;SDS011;64133;56.002;37.208;2023-02-13T16:26:05;4.50;;;2.20;;
75548;SDS011;64133;56.002;37.208;2023-02-13T16:31:12;4.03;;;2.00;;
75548;SDS011;64133;56.002;37.208;2023-02-13T16:36:18;5.10;;;2.45;;
75548;SDS011;64133;56.002;37.208;2023-02-13T16:41:30;5.37;;;1.90;;
75548;SDS011;64133;56.002;37.208;2023-02-13T16:46:35;4.22;;;2.40;;
75548;SDS011;64133;56.002;37.208;2023-02-13T16:51:40;6.78;;;2.55;;
75548;SDS011;64133;56.002;37.208;2023-02-13T16:56:45;3.92;;;1.80;;
75548;SDS011;64133;56.002;37.208;2023-02-13T17:01:49;3.98;;;2.45;;
75548;SDS011;64133;56.002;37.208;2023-02-13T17:07:06;6.15;;;3.00;;
75548;SDS011;64133;56.002;37.208;2023-02-13T17:12:15;4.10;;;2.50;;
75548;SDS011;64133;56.002;37.208;2023-02-13T17:17:20;4.22;;;2.42;;
75548;SDS011;64133;56.002;37.208;2023-02-13T17:22:30;3.67;;;2.47;;
75548;SDS011;64133;56.002;37.208;2023-02-13T17:27:36;4.95;;;2.15;;
75548;SDS011;64133;56.002;37.208;2023-02-13T17:32:41;3.85;;;2.30;;
75548;SDS011;64133;56.002;37.208;2023-02-13T17:37:46;5.12;;;2.08;;
75548;SDS011;64133;56.002;37.208;2023-02-13T17:42:51;3.02;;;1.75;;
75548;SDS011;64133;56.002;37.208;2023-02-13T17:47:55;3.67;;;2.22;;
75548;SDS011;64133;56.002;37.208;2023-02-13T17:53:01;3.27;;;1.82;;
75548;SDS011;64133;56.002;37.208;2023-02-13T17:58:05;3.17;;;1.80;;
75548;SDS011;64133;56.002;37.208;2023-02-13T18:03:10;4.53;;;1.67;;
75548;SDS011;64133;56.002;37.208;2023-02-13T18:08:15;4.83;;;1.65;;
75548;SDS011;64133;56.002;37.208;2023-02-13T18:13:20;4.28;;;1.80;;
75548;SDS011;64133;56.002;37.208;2023-02-13T18:18:24;3.65;;;1.50;;
75548;SDS011;64133;56.002;37.208;2023-02-13T18:23:29;3.12;;;1.20;;
75548;SDS011;64133;56.002;37.208;2023-02-13T18:28:34;2.55;;;1.60;;
75548;SDS011;64133;56.002;37.208;2023-02-13T18:33:38;3.42;;;1.42;;
75548;SDS011;64133;56.002;37.208;2023-02-13T18:38:43;2.22;;;1.25;;
75548;SDS011;64133;56.002;37.208;2023-02-13T18:43:48;2.25;;;0.90;;
75548;SDS011;64133;56.002;37.208;2023-02-13T18:48:52;2.22;;;0.80;;
75548;SDS011;64133;56.002;37.208;2023-02-13T18:53:57;2.75;;;1.17;;
75548;SDS011;64133;56.002;37.208;2023-02-13T18:59:01;1.72;;;0.90;;
75548;SDS011;64133;56.002;37.208;2023-02-13T19:04:06;2.05;;;0.82;;
75548;SDS011;64133;56.002;37.208;2023-02-13T19:09:11;2.42;;;0.70;;
75548;SDS011;64133;56.002;37.208;2023-02-13T19:14:18;2.37;;;1.07;;
75548;SDS011;64133;56.002;37.208;2023-02-13T19:19:24;1.50;;;0.62;;
75548;SDS011;64133;56.002;37.208;2023-02-13T19:24:28;1.27;;;0.57;;
75548;SDS011;64133;56.002;37.208;2023-02-13T19:29:33;1.45;;;0.80;;
75548;SDS011;64133;56.002;37.208;2023-02-13T19:34:38;1.40;;;0.70;;
75548;SDS011;64133;56.002;37.208;2023-02-13T19:39:43;1.67;;;0.65;;
75548;SDS011;64133;56.002;37.208;2023-02-13T19:44:47;0.50;;;0.28;;
75548;SDS011;64133;56.002;37.208;2023-02-13T19:49:52;1.20;;;0.28;;
75548;SDS011;64133;56.002;37.208;2023-02-13T19:54:56;1.12;;;0.40;;
75548;SDS011;64133;56.002;37.208;2023-02-13T20:00:01;1.22;;;0.55;;
75548;SDS011;64133;56.002;37.208;2023-02-13T20:05:07;2.12;;;0.78;;
75548;SDS011;64133;56.002;37.208;2023-02-13T20:10:12;1.40;;;0.50;;
75548;SDS011;64133;56.002;37.208;2023-02-13T20:15:17;1.20;;;0.88;;
75548;SDS011;64133;56.002;37.208;2023-02-13T20:20:21;1.60;;;1.27;;
75548;SDS011;64133;56.002;37.208;2023-02-13T20:25:28;8.08;;;2.75;;
75548;SDS011;64133;56.002;37.208;2023-02-13T20:30:33;2.02;;;0.80;;
75548;SDS011;64133;56.002;37.208;2023-02-13T20:35:37;2.05;;;1.00;;
75548;SDS011;64133;56.002;37.208;2023-02-13T20:40:42;2.22;;;0.65;;
75548;SDS011;64133;56.002;37.208;2023-02-13T20:45:47;3.10;;;1.35;;
75548;SDS011;64133;56.002;37.208;2023-02-13T20:50:56;4.00;;;1.95;;
75548;SDS011;64133;56.002;37.208;2023-02-13T20:56:03;2.65;;;0.75;;
75548;SDS011;64133;56.002;37.208;2023-02-13T21:01:10;2.62;;;1.17;;
75548;SDS011;64133;56.002;37.208;2023-02-13T21:06:15;2.08;;;1.15;;
75548;SDS011;64133;56.002;37.208;2023-02-13T21:11:20;4.12;;;1.15;;
75548;SDS011;64133;56.002;37.208;2023-02-13T21:16:25;5.30;;;1.77;;
75548;SDS011;64133;56.002;37.208;2023-02-13T21:21:30;2.42;;;1.40;;
75548;SDS011;64133;56.002;37.208;2023-02-13T21:26:34;2.08;;;0.70;;
75548;SDS011;64133;56.002;37.208;2023-02-13T21:31:39;4.65;;;1.72;;
75548;SDS011;64133;56.002;37.208;2023-02-13T21:36:44;3.30;;;1.22;;
75548;SDS011;64133;56.002;37.208;2023-02-13T21:41:48;2.47;;;1.37;;
75548;SDS011;64133;56.002;37.208;2023-02-13T21:46:53;3.00;;;1.27;;
75548;SDS011;64133;56.002;37.208;2023-02-13T21:51:58;3.02;;;1.40;;
75548;SDS011;64133;56.002;37.208;2023-02-13T21:57:02;4.37;;;1.50;;
75548;SDS011;64133;56.002;37.208;2023-02-13T22:02:08;3.30;;;1.40;;
75548;SDS011;64133;56.002;37.208;2023-02-13T22:07:12;4.95;;;1.20;;
75548;SDS011;64133;56.002;37.208;2023-02-13T22:12:17;2.25;;;1.02;;
75548;SDS011;64133;56.002;37.208;2023-02-13T22:17:22;2.42;;;1.15;;
75548;SDS011;64133;56.002;37.208;2023-02-13T22:22:26;1.47;;;0.70;;
75548;SDS011;64133;56.002;37.208;2023-02-13T22:27:31;2.65;;;1.47;;
75548;SDS011;64133;56.002;37.208;2023-02-13T22:32:36;3.25;;;1.32;;
75548;SDS011;64133;56.002;37.208;2023-02-13T22:37:41;3.30;;;1.40;;
75548;SDS011;64133;56.002;37.208;2023-02-13T22:42:46;2.62;;;1.40;;
75548;SDS011;64133;56.002;37.208;2023-02-13T22:47:50;2.75;;;1.60;;
75548;SDS011;64133;56.002;37.208;2023-02-13T22:52:55;3.20;;;1.90;;
75548;SDS011;64133;56.002;37.208;2023-02-13T22:58:00;4.62;;;1.85;;
75548;SDS011;64133;56.002;37.208;2023-02-13T23:03:04;4.80;;;1.67;;
75548;SDS011;64133;56.002;37.208;2023-02-13T23:08:09;4.22;;;1.67;;
75548;SDS011;64133;56.002;37.208;2023-02-13T23:13:14;2.77;;;1.47;;
75548;SDS011;64133;56.002;37.208;2023-02-13T23:18:18;3.85;;;1.47;;
75548;SDS011;64133;56.002;37.208;2023-02-13T23:23:23;4.28;;;1.87;;
75548;SDS011;64133;56.002;37.208;2023-02-13T23:28:27;4.35;;;1.30;;
75548;SDS011;64133;56.002;37.208;2023-02-13T23:33:32;2.92;;;1.17;;
75548;SDS011;64133;56.002;37.208;2023-02-13T23:38:37;2.17;;;1.20;;
75548;SDS011;64133;56.002;37.208;2023-02-13T23:43:41;2.25;;;1.05;;
75548;SDS011;64133;56.002;37.208;2023-02-13T23:48:46;3.65;;;1.32;;
75548;SDS011;64133;56.002;37.208;2023-02-13T23:53:51;3.90;;;0.90;;
75548;SDS011;64133;56.002;37.208;2023-02-13T23:58:56;4.12;;;1.20;;
